sensor_id;sensor_type;location;lat;lon;timestamp;P1;durP1;ratioP1;P2;durP2;ratioP2
52268;SDS011;38224;50.950;4.100;2023-11-21T00:00:36;55.95;;;24.17;;
52268;SDS011;38224;50.950;4.100;2023-11-21T00:03:01;53.65;;;23.85;;
52268;SDS011;38224;50.950;4.100;2023-11-21T00:05:27;55.78;;;24.27;;
52268;SDS011;38224;50.950;4.100;2023-11-21T00:07:52;58.53;;;24.53;;
52268;SDS011;38224;50.950;4.100;2023-11-21T00:10:17;60.47;;;25.97;;
52268;SDS011;38224;50.950;4.100;2023-11-21T00:12:43;55.72;;;25.20;;
52268;SDS011;38224;50.950;4.100;2023-11-21T00:15:08;57.10;;;25.13;;
52268;SDS011;38224;50.950;4.100;2023-11-21T00:17:39;58.95;;;25.80;;
52268;SDS011;38224;50.950;4.100;2023-11-21T00:20:07;57.38;;;25.90;;
52268;SDS011;38224;50.950;4.100;2023-11-21T00:22:33;56.92;;;26.08;;
52268;SDS011;38224;50.950;4.100;2023-11-21T00:24:59;51.67;;;22.65;;
52268;SDS011;38224;50.950;4.100;2023-11-21T00:27:24;57.87;;;24.20;;
52268;SDS011;38224;50.950;4.100;2023-11-21T00:29:49;48.93;;;20.23;;
52268;SDS011;38224;50.950;4.100;2023-11-21T00:32:15;41.47;;;21.00;;
52268;SDS011;38224;50.950;4.100;2023-11-21T00:34:40;51.22;;;23.00;;
52268;SDS011;38224;50.950;4.100;2023-11-21T00:37:05;40.53;;;19.97;;
52268;SDS011;38224;50.950;4.100;2023-11-21T00:39:30;45.77;;;20.20;;
52268;SDS011;38224;50.950;4.100;2023-11-21T00:41:58;38.97;;;19.70;;
52268;SDS011;38224;50.950;4.100;2023-11-21T00:44:23;48.13;;;20.85;;
52268;SDS011;38224;50.950;4.100;2023-11-21T00:46:48;50.00;;;21.48;;
52268;SDS011;38224;50.950;4.100;2023-11-21T00:49:14;58.63;;;25.37;;
52268;SDS011;38224;50.950;4.100;2023-11-21T00:51:39;49.77;;;24.57;;
52268;SDS011;38224;50.950;4.100;2023-11-21T00:54:04;53.15;;;26.33;;
52268;SDS011;38224;50.950;4.100;2023-11-21T00:56:31;51.30;;;23.88;;
52268;SDS011;38224;50.950;4.100;2023-11-21T00:58:57;50.38;;;23.20;;
52268;SDS011;38224;50.950;4.100;2023-11-21T01:01:25;42.47;;;21.67;;
52268;SDS011;38224;50.950;4.100;2023-11-21T01:03:50;50.47;;;21.67;;
52268;SDS011;38224;50.950;4.100;2023-11-21T01:06:16;40.70;;;21.95;;
52268;SDS011;38224;50.950;4.100;2023-11-21T01:08:41;46.03;;;21.73;;
52268;SDS011;38224;50.950;4.100;2023-11-21T01:11:10;43.13;;;22.75;;
52268;SDS011;38224;50.950;4.100;2023-11-21T01:13:37;46.97;;;22.33;;
52268;SDS011;38224;50.950;4.100;2023-11-21T01:16:03;53.78;;;24.38;;
52268;SDS011;38224;50.950;4.100;2023-11-21T01:18:28;54.60;;;22.75;;
52268;SDS011;38224;50.950;4.100;2023-11-21T01:20:54;42.03;;;21.27;;
52268;SDS011;38224;50.950;4.100;2023-11-21T01:23:19;35.83;;;19.63;;
52268;SDS011;38224;50.950;4.100;2023-11-21T01:25:45;40.42;;;20.40;;
52268;SDS011;38224;50.950;4.100;2023-11-21T01:28:10;43.13;;;20.60;;
52268;SDS011;38224;50.950;4.100;2023-11-21T01:30:35;42.05;;;21.58;;
52268;SDS011;38224;50.950;4.100;2023-11-21T01:33:00;46.15;;;22.20;;
52268;SDS011;38224;50.950;4.100;2023-11-21T01:35:26;51.45;;;22.42;;
52268;SDS011;38224;50.950;4.100;2023-11-21T01:37:51;54.27;;;23.67;;
52268;SDS011;38224;50.950;4.100;2023-11-21T01:40:16;56.88;;;25.15;;
52268;SDS011;38224;50.950;4.100;2023-11-21T01:42:42;55.70;;;25.00;;
52268;SDS011;38224;50.950;4.100;2023-11-21T01:45:08;65.30;;;25.20;;
52268;SDS011;38224;50.950;4.100;2023-11-21T01:47:34;58.13;;;24.92;;
52268;SDS011;38224;50.950;4.100;2023-11-21T01:50:01;60.45;;;24.92;;
52268;SDS011;38224;50.950;4.100;2023-11-21T01:52:26;63.38;;;28.52;;
52268;SDS011;38224;50.950;4.100;2023-11-21T01:54:52;64.50;;;28.52;;
52268;SDS011;38224;50.950;4.100;2023-11-21T01:57:18;71.47;;;29.98;;
52268;SDS011;38224;50.950;4.100;2023-11-21T01:59:44;65.82;;;28.98;;
52268;SDS011;38224;50.950;4.100;2023-11-21T02:02:09;67.95;;;29.45;;
52268;SDS011;38224;50.950;4.100;2023-11-21T02:04:35;75.83;;;30.00;;
52268;SDS011;38224;50.950;4.100;2023-11-21T02:07:04;70.70;;;27.50;;
52268;SDS011;38224;50.950;4.100;2023-11-21T02:09:32;56.72;;;26.95;;
52268;SDS011;38224;50.950;4.100;2023-11-21T02:12:03;74.18;;;29.42;;
52268;SDS011;38224;50.950;4.100;2023-11-21T02:14:29;67.15;;;30.08;;
52268;SDS011;38224;50.950;4.100;2023-11-21T02:16:56;67.45;;;31.15;;
52268;SDS011;38224;50.950;4.100;2023-11-21T02:19:22;67.55;;;29.77;;
52268;SDS011;38224;50.950;4.100;2023-11-21T02:21:50;65.88;;;30.25;;
52268;SDS011;38224;50.950;4.100;2023-11-21T02:24:18;62.35;;;30.70;;
52268;SDS011;38224;50.950;4.100;2023-11-21T02:26:43;70.65;;;30.15;;
52268;SDS011;38224;50.950;4.100;2023-11-21T02:29:09;58.47;;;29.67;;
52268;SDS011;38224;50.950;4.100;2023-11-21T02:31:37;59.55;;;29.00;;
52268;SDS011;38224;50.950;4.100;2023-11-21T02:34:10;83.68;;;32.67;;
52268;SDS011;38224;50.950;4.100;2023-11-21T02:36:38;57.38;;;28.13;;
52268;SDS011;38224;50.950;4.100;2023-11-21T02:39:03;66.33;;;27.93;;
52268;SDS011;38224;50.950;4.100;2023-11-21T02:41:28;66.27;;;29.23;;
52268;SDS011;38224;50.950;4.100;2023-11-21T02:43:54;66.47;;;29.55;;
52268;SDS011;38224;50.950;4.100;2023-11-21T02:46:19;66.13;;;27.08;;
52268;SDS011;38224;50.950;4.100;2023-11-21T02:48:44;65.10;;;29.65;;
52268;SDS011;38224;50.950;4.100;2023-11-21T02:51:10;63.70;;;28.08;;
52268;SDS011;38224;50.950;4.100;2023-11-21T02:53:35;68.53;;;32.03;;
52268;SDS011;38224;50.950;4.100;2023-11-21T02:56:00;66.07;;;29.40;;
52268;SDS011;38224;50.950;4.100;2023-11-21T02:58:26;72.20;;;31.08;;
52268;SDS011;38224;50.950;4.100;2023-11-21T03:00:51;70.30;;;29.90;;
52268;SDS011;38224;50.950;4.100;2023-11-21T03:03:17;68.05;;;33.05;;
52268;SDS011;38224;50.950;4.100;2023-11-21T03:05:42;66.90;;;31.90;;
52268;SDS011;38224;50.950;4.100;2023-11-21T03:08:07;69.28;;;32.88;;
52268;SDS011;38224;50.950;4.100;2023-11-21T03:10:33;67.32;;;32.67;;
52268;SDS011;38224;50.950;4.100;2023-11-21T03:12:58;70.65;;;33.00;;
52268;SDS011;38224;50.950;4.100;2023-11-21T03:15:23;71.45;;;32.10;;
52268;SDS011;38224;50.950;4.100;2023-11-21T03:17:49;71.97;;;34.10;;
52268;SDS011;38224;50.950;4.100;2023-11-21T03:20:14;65.53;;;30.38;;
52268;SDS011;38224;50.950;4.100;2023-11-21T03:22:41;64.10;;;29.90;;
52268;SDS011;38224;50.950;4.100;2023-11-21T03:25:07;61.25;;;28.98;;
52268;SDS011;38224;50.950;4.100;2023-11-21T03:27:35;53.90;;;27.00;;
52268;SDS011;38224;50.950;4.100;2023-11-21T03:30:00;51.30;;;26.52;;
52268;SDS011;38224;50.950;4.100;2023-11-21T03:32:26;53.83;;;27.40;;
52268;SDS011;38224;50.950;4.100;2023-11-21T03:34:55;57.53;;;27.13;;
52268;SDS011;38224;50.950;4.100;2023-11-21T03:37:23;50.17;;;26.47;;
52268;SDS011;38224;50.950;4.100;2023-11-21T03:39:49;51.97;;;26.38;;
52268;SDS011;38224;50.950;4.100;2023-11-21T03:42:15;48.15;;;26.20;;
52268;SDS011;38224;50.950;4.100;2023-11-21T03:44:40;54.50;;;28.43;;
52268;SDS011;38224;50.950;4.100;2023-11-21T03:47:05;48.27;;;26.07;;
52268;SDS011;38224;50.950;4.100;2023-11-21T03:49:30;48.13;;;25.80;;
52268;SDS011;38224;50.950;4.100;2023-11-21T03:51:56;43.95;;;25.58;;
52268;SDS011;38224;50.950;4.100;2023-11-21T03:54:21;48.00;;;25.97;;
52268;SDS011;38224;50.950;4.100;2023-11-21T03:56:46;48.90;;;25.60;;
52268;SDS011;38224;50.950;4.100;2023-11-21T03:59:11;49.80;;;25.90;;
52268;SDS011;38224;50.950;4.100;2023-11-21T04:01:37;49.28;;;24.95;;
52268;SDS011;38224;50.950;4.100;2023-11-21T04:04:02;41.45;;;25.65;;
52268;SDS011;38224;50.950;4.100;2023-11-21T04:06:28;47.85;;;24.50;;
52268;SDS011;38224;50.950;4.100;2023-11-21T04:08:53;42.83;;;24.38;;
52268;SDS011;38224;50.950;4.100;2023-11-21T04:11:19;45.87;;;25.03;;
52268;SDS011;38224;50.950;4.100;2023-11-21T04:13:44;44.07;;;24.77;;
52268;SDS011;38224;50.950;4.100;2023-11-21T04:16:09;51.80;;;27.73;;
52268;SDS011;38224;50.950;4.100;2023-11-21T04:18:38;45.67;;;24.23;;
52268;SDS011;38224;50.950;4.100;2023-11-21T04:21:04;45.33;;;23.23;;
52268;SDS011;38224;50.950;4.100;2023-11-21T04:23:29;49.28;;;24.63;;
52268;SDS011;38224;50.950;4.100;2023-11-21T04:25:56;49.95;;;24.70;;
52268;SDS011;38224;50.950;4.100;2023-11-21T04:28:22;42.58;;;23.10;;
52268;SDS011;38224;50.950;4.100;2023-11-21T04:30:47;46.58;;;23.95;;
52268;SDS011;38224;50.950;4.100;2023-11-21T04:33:13;38.95;;;23.27;;
52268;SDS011;38224;50.950;4.100;2023-11-21T04:35:38;45.55;;;24.30;;
52268;SDS011;38224;50.950;4.100;2023-11-21T04:38:03;42.88;;;22.70;;
52268;SDS011;38224;50.950;4.100;2023-11-21T04:40:29;41.63;;;23.35;;
52268;SDS011;38224;50.950;4.100;2023-11-21T04:42:54;42.53;;;24.10;;
52268;SDS011;38224;50.950;4.100;2023-11-21T04:45:19;40.90;;;23.27;;
52268;SDS011;38224;50.950;4.100;2023-11-21T04:47:44;43.00;;;23.67;;
52268;SDS011;38224;50.950;4.100;2023-11-21T04:50:10;41.70;;;23.45;;
52268;SDS011;38224;50.950;4.100;2023-11-21T04:52:35;40.13;;;22.80;;
52268;SDS011;38224;50.950;4.100;2023-11-21T04:55:01;44.00;;;22.67;;
52268;SDS011;38224;50.950;4.100;2023-11-21T04:57:27;44.10;;;22.90;;
52268;SDS011;38224;50.950;4.100;2023-11-21T04:59:53;46.20;;;23.48;;
52268;SDS011;38224;50.950;4.100;2023-11-21T05:02:19;43.08;;;22.48;;
52268;SDS011;38224;50.950;4.100;2023-11-21T05:04:44;48.53;;;25.70;;
52268;SDS011;38224;50.950;4.100;2023-11-21T05:07:10;51.28;;;26.67;;
52268;SDS011;38224;50.950;4.100;2023-11-21T05:09:38;51.88;;;26.58;;
52268;SDS011;38224;50.950;4.100;2023-11-21T05:12:05;45.58;;;26.65;;
52268;SDS011;38224;50.950;4.100;2023-11-21T05:14:31;51.00;;;27.27;;
52268;SDS011;38224;50.950;4.100;2023-11-21T05:16:56;48.17;;;23.83;;
52268;SDS011;38224;50.950;4.100;2023-11-21T05:19:21;51.10;;;25.40;;
52268;SDS011;38224;50.950;4.100;2023-11-21T05:21:46;44.05;;;24.33;;
52268;SDS011;38224;50.950;4.100;2023-11-21T05:24:12;42.60;;;23.73;;
52268;SDS011;38224;50.950;4.100;2023-11-21T05:26:37;49.55;;;24.85;;
52268;SDS011;38224;50.950;4.100;2023-11-21T05:29:03;57.80;;;24.95;;
52268;SDS011;38224;50.950;4.100;2023-11-21T05:31:29;49.73;;;25.40;;
52268;SDS011;38224;50.950;4.100;2023-11-21T05:33:54;44.13;;;23.67;;
52268;SDS011;38224;50.950;4.100;2023-11-21T05:36:19;46.10;;;26.03;;
52268;SDS011;38224;50.950;4.100;2023-11-21T05:38:44;46.80;;;25.70;;
52268;SDS011;38224;50.950;4.100;2023-11-21T05:41:10;52.85;;;26.15;;
52268;SDS011;38224;50.950;4.100;2023-11-21T05:43:38;41.08;;;25.23;;
52268;SDS011;38224;50.950;4.100;2023-11-21T05:46:04;48.97;;;25.48;;
52268;SDS011;38224;50.950;4.100;2023-11-21T05:48:29;54.65;;;26.40;;
52268;SDS011;38224;50.950;4.100;2023-11-21T05:50:55;47.78;;;25.58;;
52268;SDS011;38224;50.950;4.100;2023-11-21T05:53:20;49.85;;;26.20;;
52268;SDS011;38224;50.950;4.100;2023-11-21T05:55:46;47.20;;;25.67;;
52268;SDS011;38224;50.950;4.100;2023-11-21T05:58:11;47.13;;;24.90;;
52268;SDS011;38224;50.950;4.100;2023-11-21T06:00:38;43.50;;;25.20;;
52268;SDS011;38224;50.950;4.100;2023-11-21T06:03:03;43.67;;;25.70;;
52268;SDS011;38224;50.950;4.100;2023-11-21T06:05:31;49.97;;;24.42;;
52268;SDS011;38224;50.950;4.100;2023-11-21T06:07:57;46.70;;;24.98;;
52268;SDS011;38224;50.950;4.100;2023-11-21T06:10:26;48.05;;;25.30;;
52268;SDS011;38224;50.950;4.100;2023-11-21T06:12:52;46.40;;;24.05;;
52268;SDS011;38224;50.950;4.100;2023-11-21T06:15:17;58.78;;;26.90;;
52268;SDS011;38224;50.950;4.100;2023-11-21T06:17:45;50.85;;;26.17;;
52268;SDS011;38224;50.950;4.100;2023-11-21T06:20:14;42.75;;;25.17;;
52268;SDS011;38224;50.950;4.100;2023-11-21T06:22:40;49.08;;;24.73;;
52268;SDS011;38224;50.950;4.100;2023-11-21T06:25:06;46.58;;;25.98;;
52268;SDS011;38224;50.950;4.100;2023-11-21T06:27:44;60.00;;;26.55;;
52268;SDS011;38224;50.950;4.100;2023-11-21T06:30:09;45.60;;;24.17;;
52268;SDS011;38224;50.950;4.100;2023-11-21T06:32:36;43.67;;;24.42;;
52268;SDS011;38224;50.950;4.100;2023-11-21T06:35:02;44.97;;;25.23;;
52268;SDS011;38224;50.950;4.100;2023-11-21T06:37:29;48.05;;;26.10;;
52268;SDS011;38224;50.950;4.100;2023-11-21T06:39:54;47.92;;;25.40;;
52268;SDS011;38224;50.950;4.100;2023-11-21T06:42:21;47.67;;;24.27;;
52268;SDS011;38224;50.950;4.100;2023-11-21T06:44:46;48.53;;;23.75;;
52268;SDS011;38224;50.950;4.100;2023-11-21T06:47:13;52.58;;;24.80;;
52268;SDS011;38224;50.950;4.100;2023-11-21T06:49:38;49.38;;;23.88;;
52268;SDS011;38224;50.950;4.100;2023-11-21T06:52:04;44.87;;;23.70;;
52268;SDS011;38224;50.950;4.100;2023-11-21T06:54:30;43.10;;;24.05;;
52268;SDS011;38224;50.950;4.100;2023-11-21T06:56:56;41.33;;;24.63;;
52268;SDS011;38224;50.950;4.100;2023-11-21T06:59:21;45.30;;;24.55;;
52268;SDS011;38224;50.950;4.100;2023-11-21T07:01:47;47.50;;;24.77;;
52268;SDS011;38224;50.950;4.100;2023-11-21T07:04:12;38.53;;;24.57;;
52268;SDS011;38224;50.950;4.100;2023-11-21T07:06:37;50.92;;;27.23;;
52268;SDS011;38224;50.950;4.100;2023-11-21T07:09:03;47.22;;;25.75;;
52268;SDS011;38224;50.950;4.100;2023-11-21T07:11:28;40.08;;;24.23;;
52268;SDS011;38224;50.950;4.100;2023-11-21T07:13:53;39.90;;;23.13;;
52268;SDS011;38224;50.950;4.100;2023-11-21T07:16:18;49.95;;;24.85;;
52268;SDS011;38224;50.950;4.100;2023-11-21T07:18:44;44.67;;;24.45;;
52268;SDS011;38224;50.950;4.100;2023-11-21T07:21:09;51.22;;;24.83;;
52268;SDS011;38224;50.950;4.100;2023-11-21T07:23:37;45.38;;;24.85;;
52268;SDS011;38224;50.950;4.100;2023-11-21T07:26:02;48.38;;;24.15;;
52268;SDS011;38224;50.950;4.100;2023-11-21T07:28:28;50.90;;;25.27;;
52268;SDS011;38224;50.950;4.100;2023-11-21T07:30:53;48.60;;;25.17;;
52268;SDS011;38224;50.950;4.100;2023-11-21T07:33:18;49.38;;;27.40;;
52268;SDS011;38224;50.950;4.100;2023-11-21T07:35:43;63.00;;;26.35;;
52268;SDS011;38224;50.950;4.100;2023-11-21T07:38:09;49.67;;;23.98;;
52268;SDS011;38224;50.950;4.100;2023-11-21T07:40:34;45.80;;;23.27;;
52268;SDS011;38224;50.950;4.100;2023-11-21T07:42:59;52.37;;;25.73;;
52268;SDS011;38224;50.950;4.100;2023-11-21T07:45:25;50.88;;;25.35;;
52268;SDS011;38224;50.950;4.100;2023-11-21T07:47:52;43.35;;;23.35;;
52268;SDS011;38224;50.950;4.100;2023-11-21T07:50:18;45.88;;;24.85;;
52268;SDS011;38224;50.950;4.100;2023-11-21T07:52:43;44.95;;;23.73;;
52268;SDS011;38224;50.950;4.100;2023-11-21T07:55:08;48.47;;;23.77;;
52268;SDS011;38224;50.950;4.100;2023-11-21T07:57:34;42.58;;;23.55;;
52268;SDS011;38224;50.950;4.100;2023-11-21T07:59:59;43.30;;;24.05;;
52268;SDS011;38224;50.950;4.100;2023-11-21T08:02:25;45.03;;;24.02;;
52268;SDS011;38224;50.950;4.100;2023-11-21T08:04:51;51.05;;;25.27;;
52268;SDS011;38224;50.950;4.100;2023-11-21T08:07:17;51.77;;;25.00;;
52268;SDS011;38224;50.950;4.100;2023-11-21T08:09:42;48.03;;;24.73;;
52268;SDS011;38224;50.950;4.100;2023-11-21T08:12:09;49.95;;;23.83;;
52268;SDS011;38224;50.950;4.100;2023-11-21T08:14:36;49.28;;;25.13;;
52268;SDS011;38224;50.950;4.100;2023-11-21T08:17:04;54.55;;;24.17;;
52268;SDS011;38224;50.950;4.100;2023-11-21T08:19:29;57.03;;;24.73;;
52268;SDS011;38224;50.950;4.100;2023-11-21T08:21:54;60.23;;;25.67;;
52268;SDS011;38224;50.950;4.100;2023-11-21T08:24:20;65.72;;;25.75;;
52268;SDS011;38224;50.950;4.100;2023-11-21T08:26:45;60.00;;;26.33;;
52268;SDS011;38224;50.950;4.100;2023-11-21T08:29:10;57.23;;;25.20;;
52268;SDS011;38224;50.950;4.100;2023-11-21T08:31:36;66.75;;;26.52;;
52268;SDS011;38224;50.950;4.100;2023-11-21T08:34:02;59.00;;;25.40;;
52268;SDS011;38224;50.950;4.100;2023-11-21T08:36:28;64.33;;;26.63;;
52268;SDS011;38224;50.950;4.100;2023-11-21T08:38:53;61.25;;;25.67;;
52268;SDS011;38224;50.950;4.100;2023-11-21T08:41:18;61.95;;;26.00;;
52268;SDS011;38224;50.950;4.100;2023-11-21T08:43:47;70.07;;;26.77;;
52268;SDS011;38224;50.950;4.100;2023-11-21T08:46:13;63.00;;;25.75;;
52268;SDS011;38224;50.950;4.100;2023-11-21T08:48:40;69.05;;;25.70;;
52268;SDS011;38224;50.950;4.100;2023-11-21T08:51:06;62.55;;;25.13;;
52268;SDS011;38224;50.950;4.100;2023-11-21T08:53:31;57.20;;;25.10;;
52268;SDS011;38224;50.950;4.100;2023-11-21T08:55:57;55.15;;;23.55;;
52268;SDS011;38224;50.950;4.100;2023-11-21T08:58:23;57.35;;;24.55;;
52268;SDS011;38224;50.950;4.100;2023-11-21T09:00:48;67.17;;;24.40;;
52268;SDS011;38224;50.950;4.100;2023-11-21T09:03:14;65.15;;;24.42;;
52268;SDS011;38224;50.950;4.100;2023-11-21T09:05:39;60.63;;;23.47;;
52268;SDS011;38224;50.950;4.100;2023-11-21T09:08:05;60.70;;;24.10;;
52268;SDS011;38224;50.950;4.100;2023-11-21T09:10:30;77.13;;;25.63;;
52268;SDS011;38224;50.950;4.100;2023-11-21T09:12:56;76.43;;;29.63;;
52268;SDS011;38224;50.950;4.100;2023-11-21T09:15:21;87.88;;;30.98;;
52268;SDS011;38224;50.950;4.100;2023-11-21T09:17:47;71.57;;;28.58;;
52268;SDS011;38224;50.950;4.100;2023-11-21T09:20:12;75.07;;;28.87;;
52268;SDS011;38224;50.950;4.100;2023-11-21T09:22:39;67.72;;;27.45;;
52268;SDS011;38224;50.950;4.100;2023-11-21T09:25:05;79.18;;;28.98;;
52268;SDS011;38224;50.950;4.100;2023-11-21T09:27:32;68.63;;;28.10;;
52268;SDS011;38224;50.950;4.100;2023-11-21T09:29:57;65.75;;;31.15;;
52268;SDS011;38224;50.950;4.100;2023-11-21T09:32:23;67.45;;;27.08;;
52268;SDS011;38224;50.950;4.100;2023-11-21T09:34:49;65.15;;;28.15;;
52268;SDS011;38224;50.950;4.100;2023-11-21T09:37:15;64.00;;;27.80;;
52268;SDS011;38224;50.950;4.100;2023-11-21T09:39:40;56.28;;;25.52;;
52268;SDS011;38224;50.950;4.100;2023-11-21T09:42:13;50.65;;;23.15;;
52268;SDS011;38224;50.950;4.100;2023-11-21T09:44:46;47.33;;;22.40;;
52268;SDS011;38224;50.950;4.100;2023-11-21T09:47:14;44.95;;;20.83;;
52268;SDS011;38224;50.950;4.100;2023-11-21T09:49:41;44.30;;;21.55;;
52268;SDS011;38224;50.950;4.100;2023-11-21T09:52:06;39.53;;;20.17;;
52268;SDS011;38224;50.950;4.100;2023-11-21T09:54:34;40.72;;;19.90;;
52268;SDS011;38224;50.950;4.100;2023-11-21T09:57:00;43.40;;;20.73;;
52268;SDS011;38224;50.950;4.100;2023-11-21T09:59:25;33.25;;;18.17;;
52268;SDS011;38224;50.950;4.100;2023-11-21T10:01:54;33.17;;;18.95;;
52268;SDS011;38224;50.950;4.100;2023-11-21T10:04:19;30.10;;;18.70;;
52268;SDS011;38224;50.950;4.100;2023-11-21T10:06:45;37.00;;;21.98;;
52268;SDS011;38224;50.950;4.100;2023-11-21T10:09:12;29.95;;;17.48;;
52268;SDS011;38224;50.950;4.100;2023-11-21T10:11:41;29.50;;;17.27;;
52268;SDS011;38224;50.950;4.100;2023-11-21T10:14:08;25.77;;;17.27;;
52268;SDS011;38224;50.950;4.100;2023-11-21T10:16:35;27.55;;;17.25;;
52268;SDS011;38224;50.950;4.100;2023-11-21T10:19:02;26.63;;;17.42;;
52268;SDS011;38224;50.950;4.100;2023-11-21T10:21:28;27.90;;;18.30;;
52268;SDS011;38224;50.950;4.100;2023-11-21T10:23:54;29.48;;;18.33;;
52268;SDS011;38224;50.950;4.100;2023-11-21T10:26:19;34.00;;;23.15;;
52268;SDS011;38224;50.950;4.100;2023-11-21T10:28:58;24.02;;;16.92;;
52268;SDS011;38224;50.950;4.100;2023-11-21T10:31:25;27.60;;;19.63;;
52268;SDS011;38224;50.950;4.100;2023-11-21T10:33:51;23.08;;;15.43;;
52268;SDS011;38224;50.950;4.100;2023-11-21T10:36:27;24.00;;;16.00;;
52268;SDS011;38224;50.950;4.100;2023-11-21T10:38:52;24.15;;;15.00;;
52268;SDS011;38224;50.950;4.100;2023-11-21T10:41:18;23.38;;;14.27;;
52268;SDS011;38224;50.950;4.100;2023-11-21T10:43:43;21.50;;;14.35;;
52268;SDS011;38224;50.950;4.100;2023-11-21T10:46:09;22.75;;;12.55;;
52268;SDS011;38224;50.950;4.100;2023-11-21T10:48:35;20.50;;;11.45;;
52268;SDS011;38224;50.950;4.100;2023-11-21T10:51:01;15.52;;;10.00;;
52268;SDS011;38224;50.950;4.100;2023-11-21T10:53:32;16.95;;;9.98;;
52268;SDS011;38224;50.950;4.100;2023-11-21T10:56:05;12.90;;;8.40;;
52268;SDS011;38224;50.950;4.100;2023-11-21T10:58:32;14.65;;;8.40;;
52268;SDS011;38224;50.950;4.100;2023-11-21T11:00:58;13.32;;;6.75;;
52268;SDS011;38224;50.950;4.100;2023-11-21T11:03:23;21.20;;;11.88;;
52268;SDS011;38224;50.950;4.100;2023-11-21T11:05:49;21.65;;;12.55;;
52268;SDS011;38224;50.950;4.100;2023-11-21T11:08:20;11.60;;;6.53;;
52268;SDS011;38224;50.950;4.100;2023-11-21T11:10:51;16.90;;;8.25;;
52268;SDS011;38224;50.950;4.100;2023-11-21T11:13:17;21.58;;;11.73;;
52268;SDS011;38224;50.950;4.100;2023-11-21T11:15:43;53.75;;;29.45;;
52268;SDS011;38224;50.950;4.100;2023-11-21T11:18:10;72.07;;;43.85;;
52268;SDS011;38224;50.950;4.100;2023-11-21T11:20:36;24.65;;;15.15;;
52268;SDS011;38224;50.950;4.100;2023-11-21T11:23:24;9.27;;;4.88;;
52268;SDS011;38224;50.950;4.100;2023-11-21T11:28:20;14.97;;;5.63;;
52268;SDS011;38224;50.950;4.100;2023-11-21T11:36:05;13.40;;;5.07;;
52268;SDS011;38224;50.950;4.100;2023-11-21T11:38:31;8.00;;;4.25;;
52268;SDS011;38224;50.950;4.100;2023-11-21T11:40:59;10.68;;;5.18;;
52268;SDS011;38224;50.950;4.100;2023-11-21T11:43:27;11.85;;;4.72;;
52268;SDS011;38224;50.950;4.100;2023-11-21T11:45:57;18.30;;;5.93;;
52268;SDS011;38224;50.950;4.100;2023-11-21T11:48:23;18.92;;;5.43;;
52268;SDS011;38224;50.950;4.100;2023-11-21T11:51:02;12.23;;;3.97;;
52268;SDS011;38224;50.950;4.100;2023-11-21T11:53:40;9.18;;;4.75;;
52268;SDS011;38224;50.950;4.100;2023-11-21T11:56:19;9.38;;;4.50;;
52268;SDS011;38224;50.950;4.100;2023-11-21T11:58:45;9.88;;;4.35;;
52268;SDS011;38224;50.950;4.100;2023-11-21T12:01:11;11.20;;;4.20;;
52268;SDS011;38224;50.950;4.100;2023-11-21T12:03:37;11.93;;;5.85;;
52268;SDS011;38224;50.950;4.100;2023-11-21T12:06:02;14.45;;;5.35;;
52268;SDS011;38224;50.950;4.100;2023-11-21T12:08:28;13.93;;;4.40;;
52268;SDS011;38224;50.950;4.100;2023-11-21T12:10:56;11.77;;;5.15;;
52268;SDS011;38224;50.950;4.100;2023-11-21T12:13:22;12.88;;;5.07;;
52268;SDS011;38224;50.950;4.100;2023-11-21T12:15:48;13.88;;;5.95;;
52268;SDS011;38224;50.950;4.100;2023-11-21T12:18:14;14.77;;;5.05;;
52268;SDS011;38224;50.950;4.100;2023-11-21T12:20:40;7.75;;;3.60;;
52268;SDS011;38224;50.950;4.100;2023-11-21T12:23:07;14.27;;;5.75;;
52268;SDS011;38224;50.950;4.100;2023-11-21T12:25:34;12.70;;;4.30;;
52268;SDS011;38224;50.950;4.100;2023-11-21T12:28:01;11.32;;;4.68;;
52268;SDS011;38224;50.950;4.100;2023-11-21T12:30:31;12.57;;;4.75;;
52268;SDS011;38224;50.950;4.100;2023-11-21T12:32:57;17.73;;;7.43;;
52268;SDS011;38224;50.950;4.100;2023-11-21T12:35:24;19.08;;;5.78;;
52268;SDS011;38224;50.950;4.100;2023-11-21T12:37:50;16.95;;;7.18;;
52268;SDS011;38224;50.950;4.100;2023-11-21T12:40:17;13.65;;;5.40;;
52268;SDS011;38224;50.950;4.100;2023-11-21T12:42:43;15.45;;;5.80;;
52268;SDS011;38224;50.950;4.100;2023-11-21T12:47:43;8.48;;;4.40;;
52268;SDS011;38224;50.950;4.100;2023-11-21T12:50:08;12.73;;;4.60;;
52268;SDS011;38224;50.950;4.100;2023-11-21T12:52:40;8.50;;;5.20;;
52268;SDS011;38224;50.950;4.100;2023-11-21T12:55:06;15.70;;;5.28;;
52268;SDS011;38224;50.950;4.100;2023-11-21T12:57:34;7.10;;;4.28;;
52268;SDS011;38224;50.950;4.100;2023-11-21T12:59:59;7.70;;;4.70;;
52268;SDS011;38224;50.950;4.100;2023-11-21T13:02:27;11.25;;;6.43;;
52268;SDS011;38224;50.950;4.100;2023-11-21T13:04:56;11.10;;;7.20;;
52268;SDS011;38224;50.950;4.100;2023-11-21T13:07:23;9.82;;;6.43;;
52268;SDS011;38224;50.950;4.100;2023-11-21T13:09:51;11.32;;;7.57;;
52268;SDS011;38224;50.950;4.100;2023-11-21T13:12:17;10.07;;;7.50;;
52268;SDS011;38224;50.950;4.100;2023-11-21T13:14:45;9.10;;;6.30;;
52268;SDS011;38224;50.950;4.100;2023-11-21T13:17:11;10.15;;;7.20;;
52268;SDS011;38224;50.950;4.100;2023-11-21T13:19:37;12.35;;;7.70;;
52268;SDS011;38224;50.950;4.100;2023-11-21T13:22:03;8.67;;;7.00;;
52268;SDS011;38224;50.950;4.100;2023-11-21T13:24:29;12.10;;;8.13;;
52268;SDS011;38224;50.950;4.100;2023-11-21T13:26:54;9.97;;;7.93;;
52268;SDS011;38224;50.950;4.100;2023-11-21T13:29:20;10.83;;;7.33;;
52268;SDS011;38224;50.950;4.100;2023-11-21T13:31:45;12.18;;;7.80;;
52268;SDS011;38224;50.950;4.100;2023-11-21T13:34:11;11.02;;;7.55;;
52268;SDS011;38224;50.950;4.100;2023-11-21T13:36:39;12.65;;;8.40;;
52268;SDS011;38224;50.950;4.100;2023-11-21T13:39:07;11.82;;;8.73;;
52268;SDS011;38224;50.950;4.100;2023-11-21T13:41:36;16.88;;;10.18;;
52268;SDS011;38224;50.950;4.100;2023-11-21T13:44:03;14.02;;;8.82;;
52268;SDS011;38224;50.950;4.100;2023-11-21T13:46:40;13.57;;;7.95;;
52268;SDS011;38224;50.950;4.100;2023-11-21T13:49:06;11.18;;;8.50;;
52268;SDS011;38224;50.950;4.100;2023-11-21T13:51:35;13.38;;;8.90;;
52268;SDS011;38224;50.950;4.100;2023-11-21T13:54:09;11.88;;;8.35;;
52268;SDS011;38224;50.950;4.100;2023-11-21T13:56:35;12.63;;;9.88;;
52268;SDS011;38224;50.950;4.100;2023-11-21T13:59:00;13.15;;;10.30;;
52268;SDS011;38224;50.950;4.100;2023-11-21T14:01:34;12.25;;;7.57;;
52268;SDS011;38224;50.950;4.100;2023-11-21T14:04:32;14.07;;;8.77;;
52268;SDS011;38224;50.950;4.100;2023-11-21T14:07:15;12.88;;;8.77;;
52268;SDS011;38224;50.950;4.100;2023-11-21T14:10:04;13.43;;;9.15;;
52268;SDS011;38224;50.950;4.100;2023-11-21T14:12:31;16.42;;;8.43;;
52268;SDS011;38224;50.950;4.100;2023-11-21T14:15:00;12.63;;;7.63;;
52268;SDS011;38224;50.950;4.100;2023-11-21T14:17:26;21.60;;;12.02;;
52268;SDS011;38224;50.950;4.100;2023-11-21T14:19:52;18.65;;;13.50;;
52268;SDS011;38224;50.950;4.100;2023-11-21T14:22:17;12.82;;;7.80;;
52268;SDS011;38224;50.950;4.100;2023-11-21T14:24:43;9.45;;;7.40;;
52268;SDS011;38224;50.950;4.100;2023-11-21T14:27:12;16.13;;;8.55;;
52268;SDS011;38224;50.950;4.100;2023-11-21T14:29:37;12.85;;;6.95;;
52268;SDS011;38224;50.950;4.100;2023-11-21T14:32:06;12.60;;;6.80;;